Time;durP1;ratioP1;P1;durP2;ratioP2;P2;SDS_P1;SDS_P2;PMS_P1;PMS_P2;Temp;Humidity;BMP_temperature;BMP_pressure;BME280_temperature;BME280_humidity;BME280_pressure;Samples;Min_cycle;Max_cycle;Signal;HPM_P1;HPM_P2
2020/12/14 05:16:40;;;;;;;4.00;1.13;;;15.20;57.40;;;;;;5041950;23;20065;-84
2020/12/14 05:19:28;;;;;;;2.50;1.17;;;15.20;56.90;;;;;;4900628;29;20108;-82
2020/12/14 05:21:58;;;;;;;3.25;1.15;;;15.20;56.90;;;;;;4907984;29;20084;-73
2020/12/14 05:24:51;;;;;;;4.00;1.42;;;15.30;57.00;;;;;;4892786;29;20355;-80
2020/12/14 05:27:36;;;;;;;3.55;1.10;;;15.40;56.90;;;;;;4901811;29;20060;-81
2020/12/14 05:30:13;;;;;;;7.30;1.30;;;15.40;57.00;;;;;;4892454;29;20052;-72
2020/12/14 05:32:39;;;;;;;4.82;1.35;;;15.50;57.20;;;;;;4900837;29;20559;-81
2020/12/14 05:35:14;;;;;;;7.70;1.27;;;15.60;57.30;;;;;;4881893;29;20052;-84
2020/12/14 05:37:41;;;;;;;10.07;1.65;;;15.70;57.60;;;;;;4882217;29;20124;-77
2020/12/14 05:40:11;;;;;;;7.35;1.33;;;15.80;57.70;;;;;;4886356;29;20446;-79
2020/12/14 05:42:56;;;;;;;9.43;1.30;;;15.90;57.90;;;;;;4901537;29;20363;-82
2020/12/14 05:45:26;;;;;;;13.38;1.90;;;16.00;57.80;;;;;;4901534;29;20047;-85
2020/12/14 05:47:51;;;;;;;10.18;1.73;;;16.10;58.10;;;;;;4868009;29;20052;-84
2020/12/14 05:50:17;;;;;;;10.00;1.35;;;16.10;58.10;;;;;;4867268;29;20391;-85
2020/12/14 05:52:48;;;;;;;5.38;1.23;;;16.20;58.30;;;;;;4883190;29;20382;-78
2020/12/14 05:55:20;;;;;;;7.30;1.80;;;16.20;58.50;;;;;;4901223;29;20032;-85
2020/12/14 05:57:50;;;;;;;6.03;1.50;;;16.30;58.60;;;;;;4897042;29;20076;-81
2020/12/14 06:00:17;;;;;;;6.70;1.30;;;16.30;58.60;;;;;;4880996;29;20112;-80
2020/12/14 06:02:44;;;;;;;4.35;1.25;;;16.40;58.70;;;;;;4890698;29;20048;-77
2020/12/14 06:05:10;;;;;;;6.72;1.35;;;16.40;58.80;;;;;;4883175;29;20374;-81
2020/12/14 06:07:38;;;;;;;6.68;1.42;;;16.40;58.70;;;;;;4891788;29;20044;-82
2020/12/14 06:10:09;;;;;;;6.47;1.45;;;16.50;58.70;;;;;;4873250;29;20083;-79
2020/12/14 06:13:03;;;;;;;6.13;1.27;;;16.50;58.70;;;;;;4878907;29;20048;-79
2020/12/14 06:15:32;;;;;;;2.55;1.30;;;16.50;58.70;;;;;;4886739;29;20467;-77
2020/12/14 06:18:24;;;;;;;7.55;1.40;;;16.50;58.70;;;;;;4879882;29;20120;-83
2020/12/14 06:20:50;;;;;;;6.70;1.70;;;16.50;58.90;;;;;;4889478;29;20530;-84
2020/12/14 06:23:17;;;;;;;7.28;1.40;;;16.60;59.10;;;;;;4867533;29;20040;-84
2020/12/14 06:25:44;;;;;;;2.17;0.95;;;16.70;59.30;;;;;;4868201;29;20081;-84
2020/12/14 06:28:30;;;;;;;3.35;1.23;;;16.80;59.50;;;;;;4868255;29;20100;-83
2020/12/14 06:30:57;;;;;;;5.47;0.80;;;16.90;59.80;;;;;;4868534;29;20045;-84
2020/12/14 06:33:43;;;;;;;4.10;0.90;;;16.90;59.50;;;;;;4867510;29;20173;-84
2020/12/14 06:36:20;;;;;;;4.57;0.93;;;17.00;59.50;;;;;;4879345;29;20119;-78
2020/12/14 06:38:48;;;;;;;2.83;0.90;;;17.00;59.60;;;;;;4880794;29;20077;-82
2020/12/14 06:41:23;;;;;;;8.43;1.15;;;17.10;59.40;;;;;;4888094;29;20041;-84
2020/12/14 06:44:15;;;;;;;6.57;1.30;;;17.10;59.50;;;;;;4869995;29;20480;-84
2020/12/14 06:47:14;;;;;;;3.42;1.15;;;17.10;59.40;;;;;;4871838;29;20056;-84
2020/12/14 06:49:40;;;;;;;4.20;1.30;;;17.10;59.60;;;;;;4854471;29;20165;-82
2020/12/14 06:52:35;;;;;;;5.90;1.48;;;17.10;59.40;;;;;;4879874;29;20085;-84
2020/12/14 06:55:01;;;;;;;6.43;1.05;;;17.10;59.60;;;;;;4898600;29;20532;-82
2020/12/14 06:57:37;;;;;;;4.53;0.95;;;17.20;59.30;;;;;;4902212;29;20052;-83
2020/12/14 07:00:31;;;;;;;8.65;1.75;;;17.10;59.00;;;;;;4884416;29;20063;-81
2020/12/14 07:02:57;;;;;;;;;;;17.10;59.10;;;;;;4887981;29;20048;-82
2020/12/14 07:05:28;;;;;;;20.33;1.55;;;17.00;58.90;;;;;;4883033;29;19924;-82
2020/12/14 07:07:55;;;;;;;7.22;1.33;;;17.00;59.00;;;;;;4866794;29;20037;-82
2020/12/14 07:10:30;;;;;;;8.68;0.98;;;17.00;58.90;;;;;;4894074;29;20458;-82
2020/12/14 07:12:58;;;;;;;7.30;0.90;;;17.00;58.90;;;;;;4882571;29;20044;-78
2020/12/14 07:15:32;;;;;;;9.60;1.92;;;17.00;58.90;;;;;;4885965;29;20049;-78
2020/12/14 07:18:02;;;;;;;26.77;2.35;;;17.00;59.00;;;;;;4898962;29;20060;-80
2020/12/14 07:20:28;;;;;;;21.73;2.03;;;17.00;59.00;;;;;;4890525;29;20056;-76
2020/12/14 07:23:09;;;;;;;21.83;2.50;;;17.00;59.00;;;;;;4896476;29;20120;-78
2020/12/14 07:25:35;;;;;;;13.20;1.80;;;17.00;58.80;;;;;;4899839;29;20053;-78
2020/12/14 07:28:03;;;;;;;17.63;2.35;;;17.00;59.30;;;;;;4894383;29;20140;-76
2020/12/14 07:30:29;;;;;;;11.98;1.75;;;17.00;58.60;;;;;;4889063;29;20469;-78
2020/12/14 07:33:15;;;;;;;12.43;1.40;;;17.10;58.60;;;;;;4886262;29;20080;-81
2020/12/14 07:35:40;;;;;;;10.23;1.27;;;17.00;58.60;;;;;;4894248;29;20753;-77
2020/12/14 07:38:11;;;;;;;13.05;1.15;;;17.00;58.60;;;;;;4884720;29;20041;-72
2020/12/14 07:41:07;;;;;;;10.50;1.25;;;17.10;58.50;;;;;;4882835;29;20047;-79
2020/12/14 07:43:57;;;;;;;9.77;1.70;;;17.00;58.60;;;;;;4881174;29;20053;-78
2020/12/14 07:46:35;;;;;;;11.30;1.77;;;17.10;58.60;;;;;;4894014;29;20177;-78
2020/12/14 07:49:31;;;;;;;7.53;1.27;;;17.10;58.70;;;;;;4897901;29;20044;-85
2020/12/14 07:52:02;;;;;;;14.05;1.05;;;17.10;58.80;;;;;;4877987;29;20462;-82
2020/12/14 08:01:18;;;;;;;11.15;1.00;;;17.30;58.80;;;;;;5841188;23;20032;-84
2020/12/14 08:12:38;;;;;;;9.50;1.38;;;17.50;58.60;;;;;;5630378;23;20374;-86
2020/12/14 08:57:28;;;;;;;3.70;0.63;;;17.40;58.50;;;;;;5671148;23;20049;-84
2020/12/14 09:03:53;;;;;;;6.95;0.85;;;17.40;58.50;;;;;;4901758;29;20100;-83
2020/12/14 09:06:57;;;;;;;7.30;0.60;;;17.30;58.50;;;;;;4886058;29;20040;-84
2020/12/14 09:09:31;;;;;;;4.45;0.55;;;17.40;58.50;;;;;;4901711;29;20065;-82
2020/12/14 09:11:57;;;;;;;3.47;0.55;;;17.40;58.50;;;;;;4901735;29;20406;-83
2020/12/14 09:14:31;;;;;;;4.22;0.80;;;17.40;58.50;;;;;;4885004;29;20212;-83
2020/12/14 09:17:02;;;;;;;7.88;0.70;;;17.50;58.60;;;;;;4900603;29;20040;-81
2020/12/14 09:19:30;;;;;;;4.75;0.82;;;17.50;58.60;;;;;;4884558;29;20051;-82
2020/12/14 09:22:25;;;;;;;5.35;0.80;;;17.50;58.60;;;;;;4874480;29;20048;-81
2020/12/14 09:25:11;;;;;;;4.20;0.40;;;17.60;58.70;;;;;;4875178;29;20059;-79
2020/12/14 09:27:37;;;;;;;2.45;0.40;;;17.60;58.70;;;;;;4884688;29;20115;-81
2020/12/14 09:30:22;;;;;;;6.00;0.45;;;17.70;58.70;;;;;;4875456;29;20044;-81
2020/12/14 09:32:48;;;;;;;5.63;0.50;;;17.70;58.70;;;;;;4901555;29;20048;-81
2020/12/14 09:35:14;;;;;;;2.15;0.57;;;17.70;58.70;;;;;;4884715;29;20044;-76
2020/12/14 09:38:00;;;;;;;6.85;0.80;;;17.70;58.50;;;;;;4886776;29;20051;-75
2020/12/14 09:40:55;;;;;;;9.18;0.60;;;17.70;58.60;;;;;;4884092;29;20131;-76
2020/12/14 09:43:21;;;;;;;8.27;0.75;;;17.70;58.70;;;;;;4901001;29;20036;-77
2020/12/14 09:45:51;;;;;;;6.30;0.77;;;17.70;58.60;;;;;;4900806;29;20342;-76
2020/12/14 09:48:18;;;;;;;10.43;0.85;;;17.60;58.70;;;;;;4900840;29;20048;-76
2020/12/14 09:50:44;;;;;;;5.95;0.60;;;17.60;58.60;;;;;;4900985;29;20036;-75
2020/12/14 09:53:10;;;;;;;9.77;1.17;;;17.60;58.60;;;;;;4898703;29;20442;-82
2020/12/14 09:55:37;;;;;;;5.93;0.95;;;17.60;58.60;;;;;;4884423;29;20040;-83
2020/12/14 09:58:22;;;;;;;7.03;0.73;;;17.60;58.60;;;;;;4874460;29;20061;-83
2020/12/14 10:00:49;;;;;;;5.35;0.65;;;17.60;58.60;;;;;;4884284;29;20048;-82
2020/12/14 10:03:15;;;;;;;7.88;0.70;;;17.60;58.50;;;;;;4883832;29;20510;-83
2020/12/14 10:05:47;;;;;;;7.35;0.60;;;17.60;58.40;;;;;;4884275;29;20374;-84
2020/12/14 10:08:33;;;;;;;5.85;1.08;;;17.60;58.40;;;;;;4873832;29;20048;-83
2020/12/14 10:10:58;;;;;;;4.72;0.50;;;17.60;58.40;;;;;;4900584;29;20044;-83
2020/12/14 10:13:24;;;;;;;3.70;0.50;;;17.60;58.40;;;;;;4884607;29;20404;-84
2020/12/14 10:15:51;;;;;;;2.60;0.40;;;17.50;58.30;;;;;;4883758;29;20063;-83
2020/12/14 10:18:37;;;;;;;2.10;0.40;;;17.50;58.30;;;;;;4886741;29;20051;-84
2020/12/14 10:21:03;;;;;;;3.35;0.80;;;17.50;58.30;;;;;;4883970;29;20052;-84
2020/12/14 10:23:29;;;;;;;2.75;0.43;;;17.50;58.30;;;;;;4883854;29;20075;-84
2020/12/14 10:25:56;;;;;;;1.13;0.40;;;17.50;58.30;;;;;;4880046;29;20140;-85
2020/12/14 10:28:22;;;;;;;1.60;0.50;;;17.50;58.30;;;;;;4863478;29;20063;-83
2020/12/14 10:30:48;;;;;;;1.00;0.35;;;17.40;58.30;;;;;;4864699;29;20053;-84
2020/12/14 10:33:16;;;;;;;5.25;0.60;;;17.40;58.30;;;;;;4864184;29;20056;-84
2020/12/14 10:35:43;;;;;;;2.58;0.65;;;17.40;58.30;;;;;;4863427;29;20064;-83
2020/12/14 10:38:10;;;;;;;2.42;0.50;;;17.40;59.00;;;;;;4849050;29;20170;-84
2020/12/14 10:40:55;;;;;;;2.28;0.43;;;17.30;58.40;;;;;;4854012;29;20057;-83
2020/12/14 10:43:21;;;;;;;2.10;0.50;;;17.30;58.50;;;;;;4864277;29;20064;-84
2020/12/14 10:46:07;;;;;;;1.60;0.30;;;17.30;58.40;;;;;;4853740;29;20052;-83
2020/12/14 10:48:53;;;;;;;2.08;0.43;;;17.30;58.30;;;;;;4866345;29;20482;-83
2020/12/14 10:51:19;;;;;;;1.73;0.52;;;17.30;58.30;;;;;;4864317;29;20053;-84
2020/12/14 10:54:04;;;;;;;1.15;0.20;;;17.20;58.20;;;;;;4866653;29;20045;-84
2020/12/14 10:56:30;;;;;;;0.90;0.57;;;17.20;58.30;;;;;;4870596;29;20052;-83
2020/12/14 10:58:56;;;;;;;2.88;0.50;;;17.30;58.40;;;;;;4883091;29;20487;-84
2020/12/14 11:01:23;;;;;;;1.73;0.30;;;17.30;58.40;;;;;;4868064;29;20064;-83
2020/12/14 11:04:09;;;;;;;1.35;0.30;;;17.30;58.30;;;;;;4873455;29;20048;-84
2020/12/14 11:06:34;;;;;;;1.60;0.40;;;17.30;58.30;;;;;;4868000;29;20215;-83
2020/12/14 11:09:20;;;;;;;1.10;0.50;;;17.30;58.20;;;;;;4873870;29;20112;-84
2020/12/14 11:11:46;;;;;;;1.85;0.45;;;17.20;58.20;;;;;;4868061;29;20052;-84
2020/12/14 11:14:12;;;;;;;0.95;0.30;;;17.20;58.10;;;;;;4900306;29;20068;-84
2020/12/14 11:16:58;;;;;;;0.95;0.30;;;17.20;58.10;;;;;;4872999;29;20051;-75
2020/12/14 11:19:24;;;;;;;1.42;0.40;;;17.30;58.30;;;;;;4900006;29;20049;-77
2020/12/14 11:22:10;;;;;;;1.13;0.55;;;17.30;58.40;;;;;;4885677;29;20469;-76
2020/12/14 11:24:56;;;;;;;5.15;0.60;;;17.20;58.70;;;;;;4885914;29;20339;-76
2020/12/14 11:27:21;;;;;;;3.00;0.30;;;17.20;58.70;;;;;;4899679;29;20064;-77
2020/12/14 11:29:47;;;;;;;1.05;0.68;;;17.20;58.70;;;;;;4899533;29;20052;-75
2020/12/14 11:32:34;;;;;;;3.72;0.80;;;17.20;58.70;;;;;;4886640;29;20044;-77
2020/12/14 11:35:20;;;;;;;2.78;0.73;;;17.20;59.10;;;;;;4886565;29;20076;-76
2020/12/14 11:38:05;;;;;;;1.55;0.50;;;17.20;59.10;;;;;;4885963;29;20052;-76
2020/12/14 11:40:32;;;;;;;2.60;0.52;;;17.20;59.10;;;;;;4899635;29;20159;-76
2020/12/14 11:42:58;;;;;;;1.45;0.43;;;17.10;59.10;;;;;;4899223;29;20045;-77
2020/12/14 11:45:24;;;;;;;4.20;0.68;;;17.20;59.20;;;;;;4899500;29;20051;-78
2020/12/14 11:47:49;;;;;;;2.38;0.60;;;17.20;59.30;;;;;;4902074;29;20353;-76
2020/12/14 11:50:15;;;;;;;2.65;0.52;;;17.20;59.40;;;;;;4903259;29;20052;-74
2020/12/14 11:53:01;;;;;;;2.97;0.47;;;17.20;59.40;;;;;;4889292;29;20048;-76
2020/12/14 11:55:27;;;;;;;2.53;0.63;;;17.20;59.40;;;;;;4903305;29;20040;-75
2020/12/14 11:57:53;;;;;;;4.55;0.63;;;17.20;59.50;;;;;;4902991;29;20104;-76
2020/12/14 12:00:18;;;;;;;3.25;0.40;;;17.20;59.50;;;;;;4903403;29;20079;-75
2020/12/14 12:02:45;;;;;;;2.25;0.50;;;17.20;59.60;;;;;;4902496;29;20064;-77
2020/12/14 12:05:11;;;;;;;3.78;0.70;;;17.20;59.60;;;;;;4902210;29;20458;-78
2020/12/14 12:07:36;;;;;;;3.03;0.95;;;17.30;59.70;;;;;;4902607;29;20362;-83
2020/12/14 12:10:03;;;;;;;4.13;0.70;;;17.30;59.80;;;;;;4902910;29;20063;-81
2020/12/14 12:12:29;;;;;;;2.58;0.50;;;17.30;59.90;;;;;;4902799;29;20047;-73
2020/12/14 12:15:15;;;;;;;10.15;1.20;;;17.30;60.00;;;;;;4888931;29;20044;-82
2020/12/14 12:18:01;;;;;;;5.88;0.95;;;17.40;60.10;;;;;;4876442;29;20460;-82
2020/12/14 12:20:27;;;;;;;5.40;0.60;;;17.50;60.20;;;;;;4903400;29;20045;-82
2020/12/14 12:22:57;;;;;;;8.25;1.27;;;17.50;60.20;;;;;;4886100;29;20083;-82
2020/12/14 12:25:27;;;;;;;8.88;0.80;;;17.60;60.20;;;;;;4902529;29;20341;-81
2020/12/14 12:28:13;;;;;;;6.68;0.85;;;17.60;60.20;;;;;;4889080;29;20128;-77
2020/12/14 12:30:39;;;;;;;7.55;1.00;;;17.70;60.10;;;;;;4888702;29;20073;-83
2020/12/14 12:33:05;;;;;;;8.98;0.90;;;17.70;60.20;;;;;;4867720;29;20064;-84
2020/12/14 12:35:51;;;;;;;11.18;0.70;;;17.80;60.30;;;;;;4857073;29;20045;-85
2020/12/14 12:38:17;;;;;;;5.97;0.90;;;17.80;60.20;;;;;;4866814;29;20048;-85
2020/12/14 12:40:43;;;;;;;5.22;0.70;;;17.80;60.20;;;;;;4866754;29;20033;-84
2020/12/14 12:43:09;;;;;;;7.68;1.25;;;17.80;60.20;;;;;;4875779;29;20457;-85
2020/12/14 12:45:34;;;;;;;3.63;0.63;;;17.80;60.20;;;;;;4885469;29;20036;-83
2020/12/14 12:48:00;;;;;;;4.82;0.55;;;17.80;60.20;;;;;;4885182;29;20036;-86
2020/12/14 12:50:55;;;;;;;4.35;0.57;;;17.90;60.20;;;;;;4875522;29;20058;-85
2020/12/14 12:53:22;;;;;;;4.07;0.75;;;17.90;60.10;;;;;;4885209;29;20490;-85
2020/12/14 12:55:48;;;;;;;5.00;0.88;;;17.90;60.10;;;;;;4902024;29;20039;-76
2020/12/14 12:58:14;;;;;;;6.50;1.00;;;17.90;60.10;;;;;;4900493;29;20064;-78
2020/12/14 13:01:00;;;;;;;2.05;0.40;;;17.90;60.10;;;;;;4887463;29;20430;-84
2020/12/14 13:03:27;;;;;;;6.15;0.70;;;17.90;60.10;;;;;;4901710;29;20123;-86
2020/12/14 13:05:53;;;;;;;3.97;0.60;;;17.90;60.00;;;;;;4885063;29;20136;-85
2020/12/14 13:08:39;;;;;;;3.17;0.57;;;17.90;60.00;;;;;;4860555;29;20044;-85
2020/12/14 13:11:05;;;;;;;7.82;0.55;;;17.90;60.00;;;;;;4870161;29;20075;-86
2020/12/14 13:13:51;;;;;;;3.22;0.55;;;17.90;59.90;;;;;;4874663;29;20072;-85
2020/12/14 13:16:26;;;;;;;3.80;0.40;;;17.90;60.00;;;;;;4869517;29;20151;-83
2020/12/14 13:18:53;;;;;;;3.58;0.50;;;17.90;60.00;;;;;;4885100;29;20063;-88
2020/12/14 13:21:29;;;;;;;3.90;0.50;;;17.90;60.00;;;;;;4885209;29;20044;-84
2020/12/14 13:23:59;;;;;;;3.08;0.50;;;17.90;60.00;;;;;;4884902;29;20051;-85
2020/12/14 13:26:26;;;;;;;2.45;0.70;;;17.90;59.90;;;;;;4884678;29;20091;-79
2020/12/14 13:29:12;;;;;;;3.08;0.65;;;17.90;59.90;;;;;;4887406;29;20474;-85
2020/12/14 13:31:38;;;;;;;7.00;0.68;;;17.90;60.10;;;;;;4884404;29;20079;-76
2020/12/14 13:34:04;;;;;;;3.22;0.38;;;17.90;60.00;;;;;;4901108;29;20513;-78
2020/12/14 13:36:50;;;;;;;11.27;1.40;;;17.80;60.00;;;;;;4887473;29;20056;-85
2020/12/14 13:39:18;;;;;;;11.15;1.73;;;17.80;60.00;;;;;;4901355;29;20040;-80
2020/12/14 13:42:04;;;;;;;9.88;1.35;;;17.80;60.10;;;;;;4887187;29;20051;-85
2020/12/14 13:44:30;;;;;;;9.25;1.38;;;17.80;60.20;;;;;;4901535;29;20337;-84
2020/12/14 13:46:55;;;;;;;11.00;1.48;;;17.80;60.20;;;;;;4901264;29;20069;-83
2020/12/14 13:49:22;;;;;;;17.35;1.50;;;17.80;60.20;;;;;;4901112;29;20044;-84
2020/12/14 13:51:47;;;;;;;17.50;1.63;;;17.80;60.30;;;;;;4900979;29;20037;-84
2020/12/14 13:54:13;;;;;;;16.77;1.42;;;17.80;60.30;;;;;;4901103;29;20339;-84
2020/12/14 13:56:40;;;;;;;11.02;1.40;;;17.80;60.50;;;;;;4884209;29;20422;-84
2020/12/14 13:59:06;;;;;;;16.10;1.50;;;17.80;60.60;;;;;;4884150;29;20111;-84
2020/12/14 14:01:31;;;;;;;13.48;1.42;;;17.80;60.60;;;;;;4884198;29;20053;-85
2020/12/14 14:04:18;;;;;;;10.00;1.88;;;17.80;60.70;;;;;;4868654;29;20136;-84
2020/12/14 14:06:50;;;;;;;8.70;1.10;;;17.80;60.80;;;;;;4882079;29;20120;-85
2020/12/14 14:09:19;;;;;;;7.97;1.27;;;17.80;60.80;;;;;;4882257;29;20399;-84
2020/12/14 14:11:49;;;;;;;7.20;1.42;;;17.80;60.80;;;;;;4881970;29;20048;-85
2020/12/14 14:14:35;;;;;;;9.35;1.15;;;17.80;60.80;;;;;;4871233;29;20048;-84
2020/12/14 14:17:01;;;;;;;7.85;1.00;;;17.80;60.80;;;;;;4900675;29;20036;-85
2020/12/14 14:19:48;;;;;;;4.30;1.00;;;17.80;60.90;;;;;;4873487;29;20083;-86
2020/12/14 14:22:14;;;;;;;5.63;1.02;;;17.80;60.90;;;;;;4900266;29;20426;-85
2020/12/14 14:25:01;;;;;;;10.23;1.20;;;17.80;60.80;;;;;;4886545;29;20104;-86
2020/12/14 14:27:50;;;;;;;6.13;1.15;;;17.80;60.80;;;;;;4873480;29;20108;-86
2020/12/14 14:30:16;;;;;;;5.65;1.02;;;17.80;60.80;;;;;;4883927;29;20108;-86
2020/12/14 14:33:02;;;;;;;5.43;0.93;;;17.80;60.80;;;;;;4872884;29;20052;-77
2020/12/14 14:35:53;;;;;;;3.70;0.68;;;17.80;60.80;;;;;;4886707;29;20361;-84
2020/12/14 14:38:19;;;;;;;5.00;0.63;;;17.80;61.50;;;;;;4883443;29;20430;-84
2020/12/14 14:40:45;;;;;;;4.57;1.00;;;17.80;60.90;;;;;;4899411;29;20117;-84
2020/12/14 14:43:13;;;;;;;8.77;1.30;;;17.80;60.80;;;;;;4900713;29;20512;-84
2020/12/14 14:45:39;;;;;;;6.35;0.88;;;17.80;60.80;;;;;;4899745;29;20115;-80
2020/12/14 14:48:05;;;;;;;4.88;1.42;;;17.80;60.80;;;;;;4897210;29;20056;-84
2020/12/14 14:50:31;;;;;;;7.70;1.10;;;17.80;60.70;;;;;;4883457;29;20354;-84
2020/12/14 14:52:58;;;;;;;7.57;0.90;;;17.80;60.70;;;;;;4883702;29;20047;-83
2020/12/14 14:55:24;;;;;;;5.60;0.70;;;17.80;60.60;;;;;;4883682;29;20040;-84
2020/12/14 14:58:09;;;;;;;6.03;1.20;;;17.80;60.60;;;;;;4872965;29;20136;-83
2020/12/14 15:00:35;;;;;;;4.82;1.00;;;17.80;61.20;;;;;;4900038;29;20132;-83
2020/12/14 15:03:01;;;;;;;5.22;0.63;;;17.80;60.50;;;;;;4899676;29;20036;-83
2020/12/14 15:05:28;;;;;;;4.15;0.80;;;17.80;60.50;;;;;;4899498;29;20119;-83
2020/12/14 15:07:53;;;;;;;4.22;0.93;;;17.90;60.50;;;;;;4899772;29;20414;-83
2020/12/14 15:10:19;;;;;;;8.15;0.60;;;17.90;60.50;;;;;;4883217;29;20111;-83
2020/12/14 15:12:45;;;;;;;3.10;0.73;;;17.90;60.50;;;;;;4883448;29;20076;-83
2020/12/14 15:15:11;;;;;;;3.03;0.70;;;17.80;60.40;;;;;;4899874;29;20099;-83
2020/12/14 15:17:56;;;;;;;3.47;0.95;;;17.80;60.40;;;;;;4885600;29;20100;-84
2020/12/14 15:20:42;;;;;;;5.93;0.70;;;17.80;60.40;;;;;;4883766;29;20103;-84
2020/12/14 15:23:08;;;;;;;3.47;0.63;;;17.80;60.40;;;;;;4886994;29;20413;-84
2020/12/14 15:25:54;;;;;;;4.72;0.75;;;17.80;60.30;;;;;;4889547;29;20070;-84
2020/12/14 15:28:40;;;;;;;4.68;0.80;;;17.80;60.30;;;;;;4877017;29;20048;-84
2020/12/14 15:31:06;;;;;;;5.53;0.88;;;17.80;60.30;;;;;;4903397;29;20490;-84
2020/12/14 15:33:52;;;;;;;4.13;0.93;;;17.80;60.20;;;;;;4877104;29;20051;-84
2020/12/14 15:36:23;;;;;;;8.68;1.02;;;17.80;60.20;;;;;;4903405;29;20029;-84
2020/12/14 15:38:51;;;;;;;2.67;0.63;;;17.80;60.10;;;;;;4903150;29;20040;-84
2020/12/14 15:41:36;;;;;;;1.58;0.40;;;17.80;60.10;;;;;;4876464;29;20044;-84
2020/12/14 15:44:02;;;;;;;2.97;0.50;;;17.80;60.10;;;;;;4886881;29;20043;-84
2020/12/14 15:46:48;;;;;;;2.90;0.50;;;17.80;60.00;;;;;;4889273;29;20112;-84
2020/12/14 15:49:14;;;;;;;1.98;0.52;;;17.80;60.00;;;;;;4886234;29;20410;-84
2020/12/14 15:51:40;;;;;;;3.47;0.65;;;17.80;59.90;;;;;;4886366;29;20040;-84
2020/12/14 15:54:05;;;;;;;1.17;0.40;;;17.90;59.90;;;;;;4886441;29;20095;-84
2020/12/14 15:56:31;;;;;;;1.90;0.50;;;17.90;59.90;;;;;;4886477;29;20096;-84
2020/12/14 15:58:59;;;;;;;4.45;0.57;;;17.80;59.80;;;;;;4886244;29;20052;-84
2020/12/14 16:01:24;;;;;;;1.20;0.60;;;17.90;59.80;;;;;;4902818;29;20044;-84
2020/12/14 16:03:51;;;;;;;4.00;0.77;;;17.80;59.70;;;;;;4903062;29;20183;-76
2020/12/14 16:06:17;;;;;;;7.65;1.02;;;17.80;59.80;;;;;;4902688;29;20064;-76
2020/12/14 16:09:03;;;;;;;7.15;1.20;;;17.80;59.80;;;;;;4888713;29;20055;-82
2020/12/14 16:11:29;;;;;;;7.93;0.95;;;17.80;59.90;;;;;;4886327;29;20044;-80
2020/12/14 16:13:54;;;;;;;7.32;0.88;;;17.80;59.90;;;;;;4903001;29;20044;-81
2020/12/14 16:16:40;;;;;;;24.27;1.80;;;17.80;59.90;;;;;;4889141;29;20358;-81
2020/12/14 16:19:06;;;;;;;8.73;0.98;;;17.80;59.90;;;;;;4886324;29;20055;-82
2020/12/14 16:21:32;;;;;;;7.22;1.23;;;17.80;59.90;;;;;;4903456;29;20426;-81
2020/12/14 16:23:59;;;;;;;6.22;0.90;;;17.90;60.60;;;;;;4903050;29;20044;-82
2020/12/14 16:26:25;;;;;;;6.30;1.20;;;17.80;59.90;;;;;;4902647;29;20052;-82
2020/12/14 16:28:50;;;;;;;7.50;1.33;;;17.80;60.00;;;;;;4886475;29;20044;-81
2020/12/14 16:31:16;;;;;;;5.07;1.10;;;17.80;60.00;;;;;;4902025;29;20492;-81
2020/12/14 16:34:02;;;;;;;7.20;1.08;;;17.80;60.00;;;;;;4888270;29;20080;-83
2020/12/14 16:36:48;;;;;;;5.22;1.33;;;17.80;60.10;;;;;;4875144;29;20104;-82
2020/12/14 16:39:14;;;;;;;3.83;0.98;;;17.70;60.10;;;;;;4902454;29;20402;-82
2020/12/14 16:41:49;;;;;;;6.75;1.20;;;17.80;60.10;;;;;;4902224;29;20052;-82
2020/12/14 16:44:36;;;;;;;5.25;0.88;;;17.80;60.10;;;;;;4875531;29;20094;-82
2020/12/14 16:47:22;;;;;;;4.03;1.10;;;17.80;60.20;;;;;;4888226;29;20087;-81
2020/12/14 16:50:09;;;;;;;5.80;0.90;;;17.80;60.20;;;;;;4888182;29;20051;-81
2020/12/14 16:52:36;;;;;;;5.00;1.10;;;17.80;60.20;;;;;;4885432;29;20443;-82
2020/12/14 16:55:21;;;;;;;7.65;1.13;;;17.80;60.40;;;;;;4888599;29;20047;-81
2020/12/14 16:57:47;;;;;;;4.85;0.85;;;17.80;60.40;;;;;;4901762;29;20405;-79
2020/12/14 17:00:13;;;;;;;7.82;1.23;;;17.80;60.50;;;;;;4901780;29;20040;-82
2020/12/14 17:02:42;;;;;;;9.30;1.48;;;17.80;60.60;;;;;;4901804;29;20442;-82
2020/12/14 17:05:10;;;;;;;5.00;1.40;;;17.80;60.70;;;;;;4901620;29;20033;-81
2020/12/14 17:07:40;;;;;;;4.10;1.10;;;17.80;60.80;;;;;;4898043;29;20092;-81
2020/12/14 17:10:06;;;;;;;4.03;1.15;;;17.90;61.20;;;;;;4884440;29;20136;-81
2020/12/14 17:12:31;;;;;;;2.67;1.13;;;17.90;61.20;;;;;;4886799;29;20120;-83
2020/12/14 17:15:00;;;;;;;6.57;1.75;;;17.90;61.60;;;;;;4895073;29;20446;-82
2020/12/14 17:17:42;;;;;;;5.07;1.63;;;17.80;62.30;;;;;;4885028;29;20044;-81
2020/12/14 17:20:10;;;;;;;5.75;1.75;;;17.80;62.20;;;;;;4885358;29;20052;-79
2020/12/14 17:22:56;;;;;;;6.05;1.73;;;17.80;62.60;;;;;;4886239;29;20055;-79
2020/12/14 17:25:43;;;;;;;6.40;1.98;;;17.80;62.30;;;;;;4887600;29;20036;-80
2020/12/14 17:28:08;;;;;;;7.15;1.48;;;17.80;62.70;;;;;;4889147;29;20048;-81
2020/12/14 17:30:34;;;;;;;8.82;2.33;;;17.80;62.90;;;;;;4882815;29;20044;-80
2020/12/14 17:33:01;;;;;;;9.48;1.70;;;17.80;62.90;;;;;;4883575;29;20413;-81
2020/12/14 17:35:47;;;;;;;9.75;1.63;;;17.80;63.30;;;;;;4882383;29;20076;-82
2020/12/14 17:38:13;;;;;;;9.95;2.30;;;17.80;63.20;;;;;;4883429;29;20041;-83
2020/12/14 17:40:39;;;;;;;6.63;1.88;;;17.80;63.10;;;;;;4881557;29;20354;-83
2020/12/14 17:43:25;;;;;;;8.10;2.38;;;17.80;63.30;;;;;;4886844;29;20040;-83
2020/12/14 17:45:51;;;;;;;9.10;1.92;;;17.80;63.40;;;;;;4881190;29;20097;-83
2020/12/14 17:48:38;;;;;;;5.40;1.42;;;17.70;63.40;;;;;;4887418;29;20131;-82
2020/12/14 17:51:04;;;;;;;10.20;1.77;;;17.70;63.50;;;;;;4883623;29;20044;-83
2020/12/14 17:53:30;;;;;;;6.43;1.58;;;17.70;63.50;;;;;;4895255;29;20041;-84
2020/12/14 17:55:56;;;;;;;6.28;1.70;;;17.70;63.80;;;;;;4895715;29;20127;-84
2020/12/14 17:58:22;;;;;;;4.93;1.63;;;17.70;63.80;;;;;;4883547;29;20052;-85
2020/12/14 18:00:48;;;;;;;5.65;1.45;;;17.60;64.00;;;;;;4884000;29;20028;-83
2020/12/14 18:03:34;;;;;;;5.00;1.45;;;17.60;64.00;;;;;;4874054;29;20044;-83
2020/12/14 18:06:00;;;;;;;3.90;1.60;;;17.60;64.10;;;;;;4884174;29;20052;-83
2020/12/14 18:08:46;;;;;;;3.28;1.33;;;17.60;64.20;;;;;;4873674;29;20048;-83
2020/12/14 18:11:32;;;;;;;3.25;1.20;;;17.50;64.10;;;;;;4872426;29;20048;-83
2020/12/14 18:13:58;;;;;;;5.68;1.95;;;17.50;64.00;;;;;;4881008;29;20048;-83
2020/12/14 18:16:44;;;;;;;3.10;1.33;;;17.50;64.00;;;;;;4873288;29;20135;-84
2020/12/14 18:19:09;;;;;;;3.15;1.08;;;17.50;63.90;;;;;;4868734;29;20452;-84
2020/12/14 18:21:55;;;;;;;4.90;1.42;;;17.50;63.90;;;;;;4867215;29;20052;-83
2020/12/14 18:24:41;;;;;;;4.63;1.48;;;17.50;63.70;;;;;;4868308;29;20040;-82
2020/12/14 18:27:27;;;;;;;3.90;1.38;;;17.50;63.60;;;;;;4881073;29;20052;-84
2020/12/14 18:29:53;;;;;;;3.05;1.38;;;17.40;63.40;;;;;;4880929;29;20128;-83
2020/12/14 21:24:32;;;;;;;7.00;4.25;;;16.70;62.10;;;;;;4869480;29;20072;-80
2020/12/14 21:27:00;;;;;;;10.70;4.70;;;16.70;62.10;;;;;;4882909;29;20361;-78
2020/12/14 21:29:25;;;;;;;7.60;4.20;;;16.70;62.10;;;;;;4883110;29;20048;-78
2020/12/14 21:31:53;;;;;;;6.85;4.18;;;16.70;62.10;;;;;;4882802;29;20044;-79
2020/12/14 21:34:39;;;;;;;6.43;4.10;;;16.70;62.00;;;;;;4869617;29;20071;-80
2020/12/14 21:37:25;;;;;;;5.63;4.10;;;16.80;62.10;;;;;;4869058;29;20041;-79
2020/12/14 21:39:50;;;;;;;7.20;4.70;;;16.70;62.10;;;;;;4891123;29;20100;-79
2020/12/14 21:42:16;;;;;;;5.40;4.53;;;16.70;62.10;;;;;;4900981;29;20055;-79
2020/12/14 21:44:42;;;;;;;5.72;4.22;;;16.70;62.00;;;;;;4901863;29;20390;-79
2020/12/14 21:47:28;;;;;;;7.47;4.85;;;16.70;61.90;;;;;;4887716;29;20049;-80
2020/12/14 21:49:53;;;;;;;7.38;4.85;;;16.70;61.90;;;;;;4901376;29;20036;-80
2020/12/14 21:52:19;;;;;;;7.30;4.88;;;16.70;62.00;;;;;;4901174;29;20075;-79
2020/12/14 21:54:45;;;;;;;7.45;5.38;;;16.70;62.00;;;;;;4900971;29;20442;-78
2020/12/14 21:57:11;;;;;;;4.85;4.35;;;16.70;61.90;;;;;;4901089;29;20041;-79
2020/12/14 21:59:36;;;;;;;6.88;4.90;;;16.60;61.90;;;;;;4901015;29;20602;-78
2020/12/14 22:02:26;;;;;;;5.30;4.63;;;16.70;61.90;;;;;;4887096;29;20081;-80
2020/12/14 22:04:52;;;;;;;5.50;4.43;;;16.60;61.80;;;;;;4901152;29;20040;-80
2020/12/14 22:07:18;;;;;;;5.50;4.57;;;16.60;61.90;;;;;;4900742;29;20062;-79
2020/12/14 22:10:04;;;;;;;7.35;5.00;;;16.60;61.80;;;;;;4876350;29;20518;-80
2020/12/14 22:12:30;;;;;;;5.72;4.70;;;16.60;61.80;;;;;;4901454;29;20498;-78
2020/12/14 22:14:56;;;;;;;6.05;4.78;;;16.60;61.80;;;;;;4901430;29;20064;-79
2020/12/14 22:17:42;;;;;;;5.82;4.10;;;16.60;61.80;;;;;;4887342;29;20138;-79
2020/12/14 22:20:08;;;;;;;7.18;4.40;;;16.60;61.80;;;;;;4900309;29;20132;-79
2020/12/14 22:22:53;;;;;;;5.88;5.03;;;16.60;61.80;;;;;;4886964;29;20096;-79
2020/12/14 22:25:19;;;;;;;7.93;5.28;;;16.60;61.80;;;;;;4900694;29;20048;-78